Ardmore, Maryland
Current Conditions -  °F | °C
As of 5:30 PM on Wednesday 22 Oct 2014 (Local Time) from KCGS Reporting Station
Overcast Overcast  
Wind Chill: 55°   Ceiling: 6500
Heat Index: 55°   Visibility: 10mi
Dew Point: 50°   Wind: 9mph
Humidity: 82%   Direction: 320°NW
Pressure: 29.92"   Gusts: 17mph
Location:  38.9183°N, 76.8721°W
Report Text: KCGS 222130Z AUTO 32008G15KT 10SM SCT035 SCT050 OVC065 13/10 A2992 RMK AO1
Loading
Personal Weather Stations






























Interactive Weather Map
Tropical Storm Tracking
New forecast layout! Learn more

10-Day Weather Forecast

Advertisements
Track Severe Weather on mobile